sensor_id;sensor_type;location;lat;lon;timestamp;temperature;humidity
22194;DHT22;11262;50.308;9.270;2022-08-24T00:00:09;21.60;99.90
22194;DHT22;11262;50.308;9.270;2022-08-24T00:02:35;21.60;99.90
22194;DHT22;11262;50.308;9.270;2022-08-24T00:05:01;21.50;99.90
22194;DHT22;11262;50.308;9.270;2022-08-24T00:07:27;21.50;99.90
22194;DHT22;11262;50.308;9.270;2022-08-24T00:09:52;21.40;99.90
22194;DHT22;11262;50.308;9.270;2022-08-24T00:12:18;21.40;99.90
22194;DHT22;11262;50.308;9.270;2022-08-24T00:14:44;21.40;99.90
22194;DHT22;11262;50.308;9.270;2022-08-24T00:17:10;21.30;99.90
22194;DHT22;11262;50.308;9.270;2022-08-24T00:19:36;21.30;99.90
22194;DHT22;11262;50.308;9.270;2022-08-24T00:22:02;21.30;99.90
22194;DHT22;11262;50.308;9.270;2022-08-24T00:24:28;21.30;99.90
22194;DHT22;11262;50.308;9.270;2022-08-24T00:26:54;21.20;99.90
22194;DHT22;11262;50.308;9.270;2022-08-24T00:29:20;21.20;99.90
22194;DHT22;11262;50.308;9.270;2022-08-24T00:31:47;21.10;99.90
22194;DHT22;11262;50.308;9.270;2022-08-24T00:34:13;21.10;99.90
22194;DHT22;11262;50.308;9.270;2022-08-24T00:36:39;21.10;99.90
22194;DHT22;11262;50.308;9.270;2022-08-24T00:39:06;21.10;99.90
22194;DHT22;11262;50.308;9.270;2022-08-24T00:41:33;21.10;99.90
22194;DHT22;11262;50.308;9.270;2022-08-24T00:44:01;21.00;99.90
22194;DHT22;11262;50.308;9.270;2022-08-24T00:46:37;21.00;99.90
22194;DHT22;11262;50.308;9.270;2022-08-24T00:49:17;21.00;99.90
22194;DHT22;11262;50.308;9.270;2022-08-24T00:51:51;21.00;99.90
22194;DHT22;11262;50.308;9.270;2022-08-24T00:54:19;21.00;99.90
22194;DHT22;11262;50.308;9.270;2022-08-24T00:56:51;21.00;99.90
22194;DHT22;11262;50.308;9.270;2022-08-24T00:59:28;20.90;99.90
22194;DHT22;11262;50.308;9.270;2022-08-24T01:01:55;20.90;99.90
22194;DHT22;11262;50.308;9.270;2022-08-24T01:04:31;20.90;99.90
22194;DHT22;11262;50.308;9.270;2022-08-24T01:06:59;20.90;99.90
22194;DHT22;11262;50.308;9.270;2022-08-24T01:09:28;20.90;99.90
22194;DHT22;11262;50.308;9.270;2022-08-24T01:11:54;20.80;99.90
22194;DHT22;11262;50.308;9.270;2022-08-24T01:14:21;20.80;99.90
22194;DHT22;11262;50.308;9.270;2022-08-24T01:16:47;20.80;99.90
22194;DHT22;11262;50.308;9.270;2022-08-24T01:19:42;20.80;99.90
22194;DHT22;11262;50.308;9.270;2022-08-24T01:24:59;20.70;99.90
22194;DHT22;11262;50.308;9.270;2022-08-24T01:27:25;20.70;99.90
22194;DHT22;11262;50.308;9.270;2022-08-24T01:29:51;20.70;99.90
22194;DHT22;11262;50.308;9.270;2022-08-24T01:32:21;20.70;99.90
22194;DHT22;11262;50.308;9.270;2022-08-24T01:34:47;20.60;99.90
22194;DHT22;11262;50.308;9.270;2022-08-24T01:37:13;20.60;99.90
22194;DHT22;11262;50.308;9.270;2022-08-24T01:39:41;20.50;99.90
22194;DHT22;11262;50.308;9.270;2022-08-24T01:42:09;20.50;99.90
22194;DHT22;11262;50.308;9.270;2022-08-24T01:44:37;20.40;99.90
22194;DHT22;11262;50.308;9.270;2022-08-24T01:47:04;20.40;99.90
22194;DHT22;11262;50.308;9.270;2022-08-24T01:49:32;20.30;99.90
22194;DHT22;11262;50.308;9.270;2022-08-24T01:51:58;20.30;99.90
22194;DHT22;11262;50.308;9.270;2022-08-24T01:54:24;20.30;99.90
22194;DHT22;11262;50.308;9.270;2022-08-24T01:56:50;20.30;99.90
22194;DHT22;11262;50.308;9.270;2022-08-24T01:59:16;20.20;99.90
22194;DHT22;11262;50.308;9.270;2022-08-24T02:01:49;20.20;99.90
22194;DHT22;11262;50.308;9.270;2022-08-24T02:04:15;20.20;99.90
22194;DHT22;11262;50.308;9.270;2022-08-24T02:06:41;20.10;99.90
22194;DHT22;11262;50.308;9.270;2022-08-24T02:09:09;20.10;99.90
22194;DHT22;11262;50.308;9.270;2022-08-24T02:11:36;20.10;99.90
22194;DHT22;11262;50.308;9.270;2022-08-24T02:14:02;20.10;99.90
22194;DHT22;11262;50.308;9.270;2022-08-24T02:16:28;20.10;99.90
22194;DHT22;11262;50.308;9.270;2022-08-24T02:18:54;20.00;99.90
22194;DHT22;11262;50.308;9.270;2022-08-24T02:21:20;20.00;99.90
22194;DHT22;11262;50.308;9.270;2022-08-24T02:23:46;20.00;99.90
22194;DHT22;11262;50.308;9.270;2022-08-24T02:26:12;20.00;99.90
22194;DHT22;11262;50.308;9.270;2022-08-24T02:28:38;20.00;99.90
22194;DHT22;11262;50.308;9.270;2022-08-24T02:31:05;20.00;99.90
22194;DHT22;11262;50.308;9.270;2022-08-24T02:33:33;20.00;99.90
22194;DHT22;11262;50.308;9.270;2022-08-24T02:35:59;20.00;99.90
22194;DHT22;11262;50.308;9.270;2022-08-24T02:38:24;19.90;99.90
22194;DHT22;11262;50.308;9.270;2022-08-24T02:40:50;19.90;99.90
22194;DHT22;11262;50.308;9.270;2022-08-24T02:43:16;19.80;99.90
22194;DHT22;11262;50.308;9.270;2022-08-24T02:45:44;19.80;99.90
22194;DHT22;11262;50.308;9.270;2022-08-24T02:48:11;19.70;99.90
22194;DHT22;11262;50.308;9.270;2022-08-24T02:50:42;19.70;99.90
22194;DHT22;11262;50.308;9.270;2022-08-24T02:53:09;19.70;99.90
22194;DHT22;11262;50.308;9.270;2022-08-24T02:55:34;19.60;99.90
22194;DHT22;11262;50.308;9.270;2022-08-24T02:58:00;19.60;99.90
22194;DHT22;11262;50.308;9.270;2022-08-24T03:00:26;19.60;99.90
22194;DHT22;11262;50.308;9.270;2022-08-24T03:02:52;19.50;99.90
22194;DHT22;11262;50.308;9.270;2022-08-24T03:05:19;19.40;99.90
22194;DHT22;11262;50.308;9.270;2022-08-24T03:07:45;19.40;99.90
22194;DHT22;11262;50.308;9.270;2022-08-24T03:10:11;19.30;99.90
22194;DHT22;11262;50.308;9.270;2022-08-24T03:12:37;19.30;99.90
22194;DHT22;11262;50.308;9.270;2022-08-24T03:15:04;19.30;99.90
22194;DHT22;11262;50.308;9.270;2022-08-24T03:17:30;19.20;99.90
22194;DHT22;11262;50.308;9.270;2022-08-24T03:19:58;19.20;99.90
22194;DHT22;11262;50.308;9.270;2022-08-24T03:22:25;19.10;99.90
22194;DHT22;11262;50.308;9.270;2022-08-24T03:24:51;19.10;99.90
22194;DHT22;11262;50.308;9.270;2022-08-24T03:27:17;19.10;99.90
22194;DHT22;11262;50.308;9.270;2022-08-24T03:29:42;19.00;99.90
22194;DHT22;11262;50.308;9.270;2022-08-24T03:32:08;19.00;99.90
22194;DHT22;11262;50.308;9.270;2022-08-24T03:34:34;19.00;99.90
22194;DHT22;11262;50.308;9.270;2022-08-24T03:36:59;19.00;99.90
22194;DHT22;11262;50.308;9.270;2022-08-24T03:39:25;19.00;99.90
22194;DHT22;11262;50.308;9.270;2022-08-24T03:41:50;19.00;99.90
22194;DHT22;11262;50.308;9.270;2022-08-24T03:44:16;19.10;99.90
22194;DHT22;11262;50.308;9.270;2022-08-24T03:46:42;19.10;99.90
22194;DHT22;11262;50.308;9.270;2022-08-24T03:49:09;19.10;99.90
22194;DHT22;11262;50.308;9.270;2022-08-24T03:51:36;19.00;99.90
22194;DHT22;11262;50.308;9.270;2022-08-24T03:54:03;18.90;99.90
22194;DHT22;11262;50.308;9.270;2022-08-24T03:56:29;18.80;99.90
22194;DHT22;11262;50.308;9.270;2022-08-24T03:58:55;18.80;99.90
22194;DHT22;11262;50.308;9.270;2022-08-24T04:01:22;18.70;99.90
22194;DHT22;11262;50.308;9.270;2022-08-24T04:03:47;18.70;99.90
22194;DHT22;11262;50.308;9.270;2022-08-24T04:06:15;18.50;99.90
22194;DHT22;11262;50.308;9.270;2022-08-24T04:08:42;18.50;99.90
22194;DHT22;11262;50.308;9.270;2022-08-24T04:11:10;18.40;99.90
22194;DHT22;11262;50.308;9.270;2022-08-24T04:13:36;18.30;99.90
22194;DHT22;11262;50.308;9.270;2022-08-24T04:16:10;18.20;99.90
22194;DHT22;11262;50.308;9.270;2022-08-24T04:18:37;18.10;99.90
22194;DHT22;11262;50.308;9.270;2022-08-24T04:21:03;18.10;99.90
22194;DHT22;11262;50.308;9.270;2022-08-24T04:23:29;18.00;99.90
22194;DHT22;11262;50.308;9.270;2022-08-24T04:25:54;17.90;99.90
22194;DHT22;11262;50.308;9.270;2022-08-24T04:28:20;17.80;99.90
22194;DHT22;11262;50.308;9.270;2022-08-24T04:30:48;17.70;99.90
22194;DHT22;11262;50.308;9.270;2022-08-24T04:33:18;17.70;99.90
22194;DHT22;11262;50.308;9.270;2022-08-24T04:35:46;17.60;99.90
22194;DHT22;11262;50.308;9.270;2022-08-24T04:38:13;17.60;99.90
22194;DHT22;11262;50.308;9.270;2022-08-24T04:40:41;17.60;99.90
22194;DHT22;11262;50.308;9.270;2022-08-24T04:43:07;17.60;99.90
22194;DHT22;11262;50.308;9.270;2022-08-24T04:45:37;17.50;99.90
22194;DHT22;11262;50.308;9.270;2022-08-24T04:48:03;17.50;99.90
22194;DHT22;11262;50.308;9.270;2022-08-24T04:50:29;17.50;99.90
22194;DHT22;11262;50.308;9.270;2022-08-24T04:52:54;17.50;99.90
22194;DHT22;11262;50.308;9.270;2022-08-24T04:55:20;17.50;99.90
22194;DHT22;11262;50.308;9.270;2022-08-24T04:57:46;17.50;99.90
22194;DHT22;11262;50.308;9.270;2022-08-24T05:00:11;17.50;99.90
22194;DHT22;11262;50.308;9.270;2022-08-24T05:02:38;17.50;99.90
22194;DHT22;11262;50.308;9.270;2022-08-24T05:05:06;17.50;99.90
22194;DHT22;11262;50.308;9.270;2022-08-24T05:07:32;17.50;99.90
22194;DHT22;11262;50.308;9.270;2022-08-24T05:09:57;17.60;99.90
22194;DHT22;11262;50.308;9.270;2022-08-24T05:12:23;17.60;99.90
22194;DHT22;11262;50.308;9.270;2022-08-24T05:14:49;17.60;99.90
22194;DHT22;11262;50.308;9.270;2022-08-24T05:17:14;17.70;99.90
22194;DHT22;11262;50.308;9.270;2022-08-24T05:19:40;17.80;99.90
22194;DHT22;11262;50.308;9.270;2022-08-24T05:22:05;17.90;99.90
22194;DHT22;11262;50.308;9.270;2022-08-24T05:24:31;17.90;99.90
22194;DHT22;11262;50.308;9.270;2022-08-24T05:26:56;18.00;99.90
22194;DHT22;11262;50.308;9.270;2022-08-24T05:29:24;18.10;99.90
22194;DHT22;11262;50.308;9.270;2022-08-24T05:31:50;18.10;99.90
22194;DHT22;11262;50.308;9.270;2022-08-24T05:34:16;18.20;99.90
22194;DHT22;11262;50.308;9.270;2022-08-24T05:36:42;18.30;99.90
22194;DHT22;11262;50.308;9.270;2022-08-24T05:39:12;18.30;99.90
22194;DHT22;11262;50.308;9.270;2022-08-24T05:41:42;18.40;99.90
22194;DHT22;11262;50.308;9.270;2022-08-24T05:44:08;18.50;99.90
22194;DHT22;11262;50.308;9.270;2022-08-24T05:46:34;18.60;99.90
22194;DHT22;11262;50.308;9.270;2022-08-24T05:49:00;18.70;99.90
22194;DHT22;11262;50.308;9.270;2022-08-24T05:51:26;18.80;99.90
22194;DHT22;11262;50.308;9.270;2022-08-24T05:53:52;19.00;99.90
22194;DHT22;11262;50.308;9.270;2022-08-24T05:56:19;19.00;99.90
22194;DHT22;11262;50.308;9.270;2022-08-24T05:58:45;19.20;99.90
22194;DHT22;11262;50.308;9.270;2022-08-24T06:01:20;19.30;99.90
22194;DHT22;11262;50.308;9.270;2022-08-24T06:03:47;19.40;99.90
22194;DHT22;11262;50.308;9.270;2022-08-24T06:06:13;19.50;99.90
22194;DHT22;11262;50.308;9.270;2022-08-24T06:08:41;19.60;99.90
22194;DHT22;11262;50.308;9.270;2022-08-24T06:11:08;19.60;99.90
22194;DHT22;11262;50.308;9.270;2022-08-24T06:13:34;19.70;99.90
22194;DHT22;11262;50.308;9.270;2022-08-24T06:16:11;19.70;99.90
22194;DHT22;11262;50.308;9.270;2022-08-24T06:18:37;19.90;99.90
22194;DHT22;11262;50.308;9.270;2022-08-24T06:21:09;19.90;99.90
22194;DHT22;11262;50.308;9.270;2022-08-24T06:23:35;20.10;99.90
22194;DHT22;11262;50.308;9.270;2022-08-24T06:26:02;20.10;99.90
22194;DHT22;11262;50.308;9.270;2022-08-24T06:28:46;20.20;99.90
22194;DHT22;11262;50.308;9.270;2022-08-24T06:31:12;20.30;99.90
22194;DHT22;11262;50.308;9.270;2022-08-24T06:33:38;20.40;99.90
22194;DHT22;11262;50.308;9.270;2022-08-24T06:36:04;20.50;99.90
22194;DHT22;11262;50.308;9.270;2022-08-24T06:38:30;20.60;99.90
22194;DHT22;11262;50.308;9.270;2022-08-24T06:40:55;20.70;99.90
22194;DHT22;11262;50.308;9.270;2022-08-24T06:43:21;20.80;99.90
22194;DHT22;11262;50.308;9.270;2022-08-24T06:45:49;20.90;99.90
22194;DHT22;11262;50.308;9.270;2022-08-24T06:48:15;21.00;99.90
22194;DHT22;11262;50.308;9.270;2022-08-24T06:50:41;21.10;99.90
22194;DHT22;11262;50.308;9.270;2022-08-24T06:53:07;21.20;99.90
22194;DHT22;11262;50.308;9.270;2022-08-24T06:55:33;21.40;99.90
22194;DHT22;11262;50.308;9.270;2022-08-24T06:57:58;21.50;99.90
22194;DHT22;11262;50.308;9.270;2022-08-24T07:00:24;21.60;99.90
22194;DHT22;11262;50.308;9.270;2022-08-24T07:02:50;21.70;99.90
22194;DHT22;11262;50.308;9.270;2022-08-24T07:05:16;21.80;99.90
22194;DHT22;11262;50.308;9.270;2022-08-24T07:07:42;21.90;99.90
22194;DHT22;11262;50.308;9.270;2022-08-24T07:10:08;22.00;99.90
22194;DHT22;11262;50.308;9.270;2022-08-24T07:12:35;22.10;99.90
22194;DHT22;11262;50.308;9.270;2022-08-24T07:15:03;22.20;99.90
22194;DHT22;11262;50.308;9.270;2022-08-24T07:17:28;22.30;99.90
22194;DHT22;11262;50.308;9.270;2022-08-24T07:19:54;22.40;99.90
22194;DHT22;11262;50.308;9.270;2022-08-24T07:22:20;22.50;99.90
22194;DHT22;11262;50.308;9.270;2022-08-24T07:24:45;22.60;99.90
22194;DHT22;11262;50.308;9.270;2022-08-24T07:27:11;22.80;99.90
22194;DHT22;11262;50.308;9.270;2022-08-24T07:29:38;22.80;99.90
22194;DHT22;11262;50.308;9.270;2022-08-24T07:32:04;22.90;99.90
22194;DHT22;11262;50.308;9.270;2022-08-24T07:34:30;23.00;99.90
22194;DHT22;11262;50.308;9.270;2022-08-24T07:36:56;23.00;99.90
22194;DHT22;11262;50.308;9.270;2022-08-24T07:39:24;23.10;99.90
22194;DHT22;11262;50.308;9.270;2022-08-24T07:41:49;23.20;99.90
22194;DHT22;11262;50.308;9.270;2022-08-24T07:44:15;23.30;99.90
22194;DHT22;11262;50.308;9.270;2022-08-24T07:46:41;23.40;99.90
22194;DHT22;11262;50.308;9.270;2022-08-24T07:49:07;23.50;99.90
22194;DHT22;11262;50.308;9.270;2022-08-24T07:51:33;23.70;99.90
22194;DHT22;11262;50.308;9.270;2022-08-24T07:54:01;23.80;99.90
22194;DHT22;11262;50.308;9.270;2022-08-24T07:56:27;23.80;99.90
22194;DHT22;11262;50.308;9.270;2022-08-24T07:58:54;23.90;99.90
22194;DHT22;11262;50.308;9.270;2022-08-24T08:01:20;24.10;99.90
22194;DHT22;11262;50.308;9.270;2022-08-24T08:03:47;24.20;99.90
22194;DHT22;11262;50.308;9.270;2022-08-24T08:06:12;24.30;99.90
22194;DHT22;11262;50.308;9.270;2022-08-24T08:08:40;24.40;99.90
22194;DHT22;11262;50.308;9.270;2022-08-24T08:11:06;24.50;99.90
22194;DHT22;11262;50.308;9.270;2022-08-24T08:13:32;24.60;99.90
22194;DHT22;11262;50.308;9.270;2022-08-24T08:15:59;24.60;99.90
22194;DHT22;11262;50.308;9.270;2022-08-24T08:18:26;24.70;99.90
22194;DHT22;11262;50.308;9.270;2022-08-24T08:20:52;24.90;99.90
22194;DHT22;11262;50.308;9.270;2022-08-24T08:23:18;25.00;99.90
22194;DHT22;11262;50.308;9.270;2022-08-24T08:26:03;25.10;99.90
22194;DHT22;11262;50.308;9.270;2022-08-24T08:28:31;25.20;99.90
22194;DHT22;11262;50.308;9.270;2022-08-24T08:30:58;25.20;99.90
22194;DHT22;11262;50.308;9.270;2022-08-24T08:33:23;25.30;99.90
22194;DHT22;11262;50.308;9.270;2022-08-24T08:35:50;25.40;99.90
22194;DHT22;11262;50.308;9.270;2022-08-24T08:38:17;25.40;99.90
22194;DHT22;11262;50.308;9.270;2022-08-24T08:41:05;25.40;99.90
22194;DHT22;11262;50.308;9.270;2022-08-24T08:43:40;25.50;99.90
22194;DHT22;11262;50.308;9.270;2022-08-24T08:46:12;25.50;99.90
22194;DHT22;11262;50.308;9.270;2022-08-24T09:05:44;26.20;99.90
22194;DHT22;11262;50.308;9.270;2022-08-24T09:10:53;26.60;99.90
22194;DHT22;11262;50.308;9.270;2022-08-24T09:13:43;26.70;99.90
22194;DHT22;11262;50.308;9.270;2022-08-24T09:38:22;27.60;96.80
22194;DHT22;11262;50.308;9.270;2022-08-24T09:44:18;27.50;96.10
22194;DHT22;11262;50.308;9.270;2022-08-24T10:00:54;28.20;93.10
22194;DHT22;11262;50.308;9.270;2022-08-24T10:06:37;28.30;92.20
22194;DHT22;11262;50.308;9.270;2022-08-24T10:13:19;28.80;91.50
22194;DHT22;11262;50.308;9.270;2022-08-24T10:15:22;29.00;90.50
22194;DHT22;11262;50.308;9.270;2022-08-24T10:20:45;29.30;84.50
22194;DHT22;11262;50.308;9.270;2022-08-24T10:23:40;29.50;84.00
22194;DHT22;11262;50.308;9.270;2022-08-24T10:26:21;29.50;83.00
22194;DHT22;11262;50.308;9.270;2022-08-24T10:53:51;31.70;70.00
22194;DHT22;11262;50.308;9.270;2022-08-24T10:56:20;31.90;69.20
22194;DHT22;11262;50.308;9.270;2022-08-24T11:01:32;32.30;69.50
22194;DHT22;11262;50.308;9.270;2022-08-24T11:06:35;32.40;67.00
22194;DHT22;11262;50.308;9.270;2022-08-24T11:09:12;32.60;66.40
22194;DHT22;11262;50.308;9.270;2022-08-24T11:11:40;32.70;65.90
22194;DHT22;11262;50.308;9.270;2022-08-24T11:16:44;33.10;64.60
22194;DHT22;11262;50.308;9.270;2022-08-24T11:19:12;33.30;62.20
22194;DHT22;11262;50.308;9.270;2022-08-24T11:21:45;33.60;61.90
22194;DHT22;11262;50.308;9.270;2022-08-24T11:26:57;33.50;59.00
22194;DHT22;11262;50.308;9.270;2022-08-24T11:30:14;33.50;59.40
22194;DHT22;11262;50.308;9.270;2022-08-24T11:38:06;33.80;58.40
22194;DHT22;11262;50.308;9.270;2022-08-24T11:40:36;33.80;57.80
22194;DHT22;11262;50.308;9.270;2022-08-24T11:43:12;34.20;57.40
22194;DHT22;11262;50.308;9.270;2022-08-24T11:46:04;34.20;57.20
22194;DHT22;11262;50.308;9.270;2022-08-24T11:48:41;34.60;56.10
22194;DHT22;11262;50.308;9.270;2022-08-24T11:51:26;34.30;54.90
22194;DHT22;11262;50.308;9.270;2022-08-24T11:57:14;34.50;53.70
22194;DHT22;11262;50.308;9.270;2022-08-24T12:00:04;34.50;53.70
22194;DHT22;11262;50.308;9.270;2022-08-24T12:05:11;34.50;51.10
22194;DHT22;11262;50.308;9.270;2022-08-24T12:08:14;34.60;51.10
22194;DHT22;11262;50.308;9.270;2022-08-24T12:10:50;34.70;51.50
22194;DHT22;11262;50.308;9.270;2022-08-24T12:21:18;35.10;49.90
22194;DHT22;11262;50.308;9.270;2022-08-24T12:23:49;34.90;49.00
22194;DHT22;11262;50.308;9.270;2022-08-24T12:26:29;34.90;48.50
22194;DHT22;11262;50.308;9.270;2022-08-24T12:32:17;35.10;49.30
22194;DHT22;11262;50.308;9.270;2022-08-24T12:35:06;34.90;48.40
22194;DHT22;11262;50.308;9.270;2022-08-24T12:37:37;35.10;49.30
22194;DHT22;11262;50.308;9.270;2022-08-24T12:40:25;35.30;49.80
22194;DHT22;11262;50.308;9.270;2022-08-24T12:45:40;35.50;48.20
22194;DHT22;11262;50.308;9.270;2022-08-24T12:48:23;35.70;48.90
22194;DHT22;11262;50.308;9.270;2022-08-24T12:58:51;35.60;48.70
22194;DHT22;11262;50.308;9.270;2022-08-24T13:01:20;35.50;48.10
22194;DHT22;11262;50.308;9.270;2022-08-24T13:04:00;35.70;49.50
22194;DHT22;11262;50.308;9.270;2022-08-24T13:06:49;35.30;48.20
22194;DHT22;11262;50.308;9.270;2022-08-24T13:09:25;35.20;48.40
22194;DHT22;11262;50.308;9.270;2022-08-24T13:11:52;35.50;48.60
22194;DHT22;11262;50.308;9.270;2022-08-24T13:14:21;35.90;48.30
22194;DHT22;11262;50.308;9.270;2022-08-24T13:32:37;36.10;47.70
22194;DHT22;11262;50.308;9.270;2022-08-24T13:41:00;35.90;46.20
22194;DHT22;11262;50.308;9.270;2022-08-24T13:43:32;35.80;46.90
22194;DHT22;11262;50.308;9.270;2022-08-24T13:49:02;36.00;46.60
22194;DHT22;11262;50.308;9.270;2022-08-24T13:51:37;35.80;46.10
22194;DHT22;11262;50.308;9.270;2022-08-24T13:54:12;35.80;46.80
22194;DHT22;11262;50.308;9.270;2022-08-24T13:56:54;35.60;46.60
22194;DHT22;11262;50.308;9.270;2022-08-24T13:59:49;35.70;46.90
22194;DHT22;11262;50.308;9.270;2022-08-24T14:02:34;35.60;46.90
22194;DHT22;11262;50.308;9.270;2022-08-24T14:05:32;35.60;48.10
22194;DHT22;11262;50.308;9.270;2022-08-24T14:08:18;35.40;45.80
22194;DHT22;11262;50.308;9.270;2022-08-24T14:19:41;34.70;47.50
22194;DHT22;11262;50.308;9.270;2022-08-24T14:24:47;34.60;47.30
22194;DHT22;11262;50.308;9.270;2022-08-24T14:27:41;34.60;47.40
22194;DHT22;11262;50.308;9.270;2022-08-24T14:44:23;34.90;47.10
22194;DHT22;11262;50.308;9.270;2022-08-24T14:49:46;34.60;47.60
22194;DHT22;11262;50.308;9.270;2022-08-24T14:52:36;34.30;47.10
22194;DHT22;11262;50.308;9.270;2022-08-24T14:58:48;34.20;48.00
22194;DHT22;11262;50.308;9.270;2022-08-24T15:06:54;34.50;48.30
22194;DHT22;11262;50.308;9.270;2022-08-24T15:09:30;34.60;47.50
22194;DHT22;11262;50.308;9.270;2022-08-24T15:14:57;34.90;48.00
22194;DHT22;11262;50.308;9.270;2022-08-24T15:23:00;35.30;46.90
22194;DHT22;11262;50.308;9.270;2022-08-24T15:25:44;35.30;46.90
22194;DHT22;11262;50.308;9.270;2022-08-24T15:28:13;35.30;46.60
22194;DHT22;11262;50.308;9.270;2022-08-24T15:30:55;35.20;46.50
22194;DHT22;11262;50.308;9.270;2022-08-24T15:33:20;35.40;47.00
22194;DHT22;11262;50.308;9.270;2022-08-24T15:36:03;35.70;46.40
22194;DHT22;11262;50.308;9.270;2022-08-24T15:41:08;36.50;45.20
22194;DHT22;11262;50.308;9.270;2022-08-24T15:43:41;36.50;45.00
22194;DHT22;11262;50.308;9.270;2022-08-24T15:46:09;36.80;45.10
22194;DHT22;11262;50.308;9.270;2022-08-24T15:48:36;37.00;45.20
22194;DHT22;11262;50.308;9.270;2022-08-24T15:51:02;37.20;45.00
22194;DHT22;11262;50.308;9.270;2022-08-24T15:55:56;37.80;44.10
22194;DHT22;11262;50.308;9.270;2022-08-24T15:58:35;37.70;43.70
22194;DHT22;11262;50.308;9.270;2022-08-24T16:11:39;37.80;43.40
22194;DHT22;11262;50.308;9.270;2022-08-24T16:14:12;37.50;44.20
22194;DHT22;11262;50.308;9.270;2022-08-24T16:16:41;36.70;43.90
22194;DHT22;11262;50.308;9.270;2022-08-24T16:19:22;36.20;44.40
22194;DHT22;11262;50.308;9.270;2022-08-24T16:21:58;35.60;45.30
22194;DHT22;11262;50.308;9.270;2022-08-24T16:24:29;34.90;45.30
22194;DHT22;11262;50.308;9.270;2022-08-24T16:32:13;34.20;46.20
22194;DHT22;11262;50.308;9.270;2022-08-24T16:34:42;33.90;46.80
22194;DHT22;11262;50.308;9.270;2022-08-24T16:37:08;33.60;47.90
22194;DHT22;11262;50.308;9.270;2022-08-24T16:39:34;33.30;47.60
22194;DHT22;11262;50.308;9.270;2022-08-24T16:42:03;33.10;48.50
22194;DHT22;11262;50.308;9.270;2022-08-24T16:44:39;32.70;48.70
22194;DHT22;11262;50.308;9.270;2022-08-24T16:47:07;32.40;49.10
22194;DHT22;11262;50.308;9.270;2022-08-24T16:49:33;32.10;49.80
22194;DHT22;11262;50.308;9.270;2022-08-24T16:51:59;31.70;50.20
22194;DHT22;11262;50.308;9.270;2022-08-24T16:54:25;31.50;50.40
22194;DHT22;11262;50.308;9.270;2022-08-24T16:56:56;31.30;50.80
22194;DHT22;11262;50.308;9.270;2022-08-24T16:59:30;31.10;51.10
22194;DHT22;11262;50.308;9.270;2022-08-24T17:01:56;30.80;51.10
22194;DHT22;11262;50.308;9.270;2022-08-24T17:04:22;30.70;51.50
22194;DHT22;11262;50.308;9.270;2022-08-24T17:06:48;30.60;51.60
22194;DHT22;11262;50.308;9.270;2022-08-24T17:09:14;30.40;51.90
22194;DHT22;11262;50.308;9.270;2022-08-24T17:11:40;30.20;52.20
22194;DHT22;11262;50.308;9.270;2022-08-24T17:14:07;30.00;52.70
22194;DHT22;11262;50.308;9.270;2022-08-24T17:16:34;29.80;53.00
22194;DHT22;11262;50.308;9.270;2022-08-24T17:19:02;29.70;53.30
22194;DHT22;11262;50.308;9.270;2022-08-24T17:21:29;29.50;53.70
22194;DHT22;11262;50.308;9.270;2022-08-24T17:23:55;29.40;53.80
22194;DHT22;11262;50.308;9.270;2022-08-24T17:26:20;29.20;54.00
22194;DHT22;11262;50.308;9.270;2022-08-24T17:28:46;29.20;54.80
22194;DHT22;11262;50.308;9.270;2022-08-24T17:31:13;29.10;54.10
22194;DHT22;11262;50.308;9.270;2022-08-24T17:33:39;29.10;54.20
22194;DHT22;11262;50.308;9.270;2022-08-24T17:36:05;28.90;54.60
22194;DHT22;11262;50.308;9.270;2022-08-24T17:38:33;28.80;54.90
22194;DHT22;11262;50.308;9.270;2022-08-24T17:41:01;28.60;55.00
22194;DHT22;11262;50.308;9.270;2022-08-24T17:43:27;28.50;55.20
22194;DHT22;11262;50.308;9.270;2022-08-24T17:45:53;28.40;55.40
22194;DHT22;11262;50.308;9.270;2022-08-24T17:48:23;28.20;55.90
22194;DHT22;11262;50.308;9.270;2022-08-24T17:50:49;28.10;56.20
22194;DHT22;11262;50.308;9.270;2022-08-24T17:53:15;28.10;56.50
22194;DHT22;11262;50.308;9.270;2022-08-24T17:55:40;27.90;56.50
22194;DHT22;11262;50.308;9.270;2022-08-24T17:58:06;27.80;56.50
22194;DHT22;11262;50.308;9.270;2022-08-24T18:00:32;27.80;56.30
22194;DHT22;11262;50.308;9.270;2022-08-24T18:02:57;27.70;56.40
22194;DHT22;11262;50.308;9.270;2022-08-24T18:05:23;27.60;56.70
22194;DHT22;11262;50.308;9.270;2022-08-24T18:07:51;27.50;56.90
22194;DHT22;11262;50.308;9.270;2022-08-24T18:10:25;27.40;57.50
22194;DHT22;11262;50.308;9.270;2022-08-24T18:12:52;27.40;57.50
22194;DHT22;11262;50.308;9.270;2022-08-24T18:15:18;27.20;57.80
22194;DHT22;11262;50.308;9.270;2022-08-24T18:17:47;27.10;59.10
22194;DHT22;11262;50.308;9.270;2022-08-24T18:20:15;27.10;58.80
22194;DHT22;11262;50.308;9.270;2022-08-24T18:22:43;26.90;59.30
22194;DHT22;11262;50.308;9.270;2022-08-24T18:25:12;26.80;60.00
22194;DHT22;11262;50.308;9.270;2022-08-24T18:27:38;26.80;59.20
22194;DHT22;11262;50.308;9.270;2022-08-24T18:30:06;26.60;59.40
22194;DHT22;11262;50.308;9.270;2022-08-24T18:32:32;26.40;60.10
22194;DHT22;11262;50.308;9.270;2022-08-24T18:34:58;26.30;60.80
22194;DHT22;11262;50.308;9.270;2022-08-24T18:37:24;26.10;61.40
22194;DHT22;11262;50.308;9.270;2022-08-24T18:39:50;26.10;61.40
22194;DHT22;11262;50.308;9.270;2022-08-24T18:42:16;25.90;61.10
22194;DHT22;11262;50.308;9.270;2022-08-24T18:44:42;25.70;61.90
22194;DHT22;11262;50.308;9.270;2022-08-24T18:47:08;25.50;62.00
22194;DHT22;11262;50.308;9.270;2022-08-24T18:49:34;25.30;62.80
22194;DHT22;11262;50.308;9.270;2022-08-24T18:52:00;25.20;63.50
22194;DHT22;11262;50.308;9.270;2022-08-24T18:54:34;25.20;62.70
22194;DHT22;11262;50.308;9.270;2022-08-24T18:57:00;25.30;63.70
22194;DHT22;11262;50.308;9.270;2022-08-24T18:59:26;25.40;63.00
22194;DHT22;11262;50.308;9.270;2022-08-24T19:01:52;25.40;64.30
22194;DHT22;11262;50.308;9.270;2022-08-24T19:04:43;25.40;63.80
22194;DHT22;11262;50.308;9.270;2022-08-24T19:07:09;25.50;64.70
22194;DHT22;11262;50.308;9.270;2022-08-24T19:09:35;25.40;63.70
22194;DHT22;11262;50.308;9.270;2022-08-24T19:12:02;25.40;63.50
22194;DHT22;11262;50.308;9.270;2022-08-24T19:14:28;25.30;63.70
22194;DHT22;11262;50.308;9.270;2022-08-24T19:16:54;25.20;63.90
22194;DHT22;11262;50.308;9.270;2022-08-24T19:19:19;25.20;64.40
22194;DHT22;11262;50.308;9.270;2022-08-24T19:21:45;25.10;64.00
22194;DHT22;11262;50.308;9.270;2022-08-24T19:24:11;25.10;64.10
22194;DHT22;11262;50.308;9.270;2022-08-24T19:26:36;25.00;64.70
22194;DHT22;11262;50.308;9.270;2022-08-24T19:29:02;24.90;65.20
22194;DHT22;11262;50.308;9.270;2022-08-24T19:31:31;24.80;65.20
22194;DHT22;11262;50.308;9.270;2022-08-24T19:33:58;24.70;65.60